TimeEST,TemperatureF,Dew PointF,Humidity,Sea Level PressureIn,VisibilityMPH,Wind Direction,Wind SpeedMPH,Gust SpeedMPH,PrecipitationIn,Events,Conditions,WindDirDegrees,DateUTC
12:53 AM,19.0,15.1,85,30.34,6.0,SSW,4.6,-,N/A,,Clear,200,2013-01-05 05:53:00
1:53 AM,21.0,17.1,85,30.34,8.0,South,8.1,-,N/A,,Clear,190,2013-01-05 06:53:00
2:53 AM,21.9,17.1,82,30.34,8.0,South,6.9,-,N/A,,Clear,190,2013-01-05 07:53:00
3:53 AM,16.0,14.0,92,30.34,4.0,SSE,4.6,-,N/A,,Clear,160,2013-01-05 08:53:00
4:41 AM,15.8,12.2,86,30.30,2.5,South,4.6,-,N/A,,Clear,180,2013-01-05 09:41:00
4:53 AM,16.0,14.0,92,30.34,2.0,South,4.6,-,N/A,,Clear,180,2013-01-05 09:53:00
5:11 AM,17.6,14.0,86,30.31,4.0,South,5.8,-,N/A,,Clear,180,2013-01-05 10:11:00
6:06 AM,15.8,12.2,86,30.30,4.0,SSE,5.8,-,N/A,,Clear,160,2013-01-05 11:06:00
6:53 AM,12.9,10.0,88,30.35,3.0,South,6.9,-,N/A,,Clear,170,2013-01-05 11:53:00
7:53 AM,23.0,19.0,85,30.34,6.0,South,11.5,-,N/A,,Clear,180,2013-01-05 12:53:00
8:53 AM,23.0,19.9,88,30.33,4.0,South,8.1,-,N/A,,Clear,180,2013-01-05 13:53:00
9:53 AM,25.0,21.9,88,30.34,4.0,South,11.5,-,N/A,,Clear,190,2013-01-05 14:53:00
10:53 AM,28.0,23.0,81,30.33,6.0,South,11.5,-,N/A,,Haze,180,2013-01-05 15:53:00
11:53 AM,30.9,25.0,79,30.30,8.0,South,12.7,-,N/A,,Clear,190,2013-01-05 16:53:00
12:53 PM,33.1,26.1,75,30.27,8.0,SSW,8.1,-,N/A,,Clear,200,2013-01-05 17:53:00
1:53 PM,36.0,26.1,67,30.22,9.0,South,8.1,-,N/A,,Scattered Clouds,190,2013-01-05 18:53:00
2:53 PM,37.0,26.1,65,30.21,9.0,South,12.7,-,N/A,,Overcast,190,2013-01-05 19:53:00
3:53 PM,37.0,27.0,67,30.20,10.0,South,9.2,-,N/A,,Overcast,190,2013-01-05 20:53:00
4:53 PM,37.0,26.1,65,30.22,7.0,WSW,10.4,-,0.00,Snow,Light Snow,250,2013-01-05 21:53:00
5:53 PM,36.0,28.0,73,30.20,10.0,SSW,6.9,-,0.00,,Overcast,200,2013-01-05 22:53:00
6:53 PM,34.0,28.0,79,30.20,10.0,SSW,4.6,-,N/A,,Overcast,210,2013-01-05 23:53:00
7:53 PM,34.0,27.0,75,30.20,10.0,South,4.6,-,N/A,,Overcast,190,2013-01-06 00:53:00
8:53 PM,34.0,27.0,75,30.19,10.0,South,6.9,-,N/A,,Overcast,190,2013-01-06 01:53:00
9:53 PM,35.1,27.0,72,30.18,10.0,South,8.1,-,N/A,,Overcast,190,2013-01-06 02:53:00
10:53 PM,35.1,27.0,72,30.16,10.0,South,9.2,-,N/A,,Overcast,190,2013-01-06 03:53:00
11:53 PM,34.0,27.0,75,30.14,10.0,South,8.1,-,N/A,,Overcast,180,2013-01-06 04:53:00